Time;durP1;ratioP1;P1;durP2;ratioP2;P2;SDS_P1;SDS_P2;PMS_P1;PMS_P2;Temp;Humidity;BMP_temperature;BMP_pressure;BME280_temperature;BME280_humidity;BME280_pressure;Samples;Min_cycle;Max_cycle;Signal;HPM_P1;HPM_P2
2023/12/31 00:00:51;;;;;;;5.75;1.10;;;;;;;6.22;100.00;100538.16;6275867;28;20048;-71
2023/12/31 00:03:52;;;;;;;9.90;1.00;;;;;;;6.22;100.00;100539.91;6275589;28;20041;-71
2023/12/31 00:06:53;;;;;;;2.25;0.77;;;;;;;6.22;100.00;100525.13;6274972;28;20044;-71
2023/12/31 00:09:56;;;;;;;5.22;1.15;;;;;;;6.23;100.00;100525.97;6275719;28;20044;-70
2023/12/31 00:12:57;;;;;;;5.65;1.08;;;;;;;6.19;100.00;100517.41;6275420;28;20587;-71
2023/12/31 00:15:58;;;;;;;3.55;1.13;;;;;;;6.13;100.00;100515.00;6275319;28;20049;-71
2023/12/31 00:19:00;;;;;;;2.53;1.77;;;;;;;6.16;100.00;100514.91;6275702;28;20045;-71
2023/12/31 00:22:01;;;;;;;1.75;0.80;;;;;;;6.19;100.00;100506.13;6274900;28;20049;-70
2023/12/31 00:25:05;;;;;;;3.47;0.80;;;;;;;6.27;100.00;100499.69;6275194;28;20040;-71
2023/12/31 00:28:06;;;;;;;4.28;1.05;;;;;;;6.34;100.00;100500.28;6275243;28;20044;-71
2023/12/31 00:31:07;;;;;;;2.63;1.00;;;;;;;6.36;100.00;100501.09;6275307;28;20071;-71
2023/12/31 00:34:10;;;;;;;4.45;1.00;;;;;;;6.29;100.00;100495.25;6274787;28;20041;-71
2023/12/31 00:37:11;;;;;;;2.33;1.02;;;;;;;6.31;100.00;100495.19;6274597;28;20394;-71
2023/12/31 00:40:14;;;;;;;1.27;0.70;;;;;;;6.32;100.00;100492.53;6275065;28;20056;-71
2023/12/31 00:43:15;;;;;;;1.75;0.68;;;;;;;6.29;100.00;100492.63;6275029;28;20037;-72
2023/12/31 00:46:17;;;;;;;5.75;0.88;;;;;;;6.34;100.00;100482.03;6274378;28;20056;-71
2023/12/31 00:49:18;;;;;;;2.28;1.02;;;;;;;6.29;100.00;100482.19;6275505;28;20060;-71
2023/12/31 00:52:19;;;;;;;2.00;0.73;;;;;;;6.27;100.00;100475.38;6274800;28;20052;-71
2023/12/31 00:55:22;;;;;;;7.22;1.65;;;;;;;6.27;100.00;100473.59;6274110;28;20045;-70
2023/12/31 00:58:23;;;;;;;7.18;1.20;;;;;;;6.23;100.00;100473.78;6274992;28;20441;-70
2023/12/31 01:01:25;;;;;;;5.28;1.10;;;;;;;6.23;100.00;100468.56;6277450;28;20053;-71
2023/12/31 01:04:27;;;;;;;4.15;1.02;;;;;;;6.21;100.00;100471.22;6279199;28;20354;-70
2023/12/31 01:07:28;;;;;;;3.88;1.02;;;;;;;6.21;100.00;100467.75;6279582;28;20511;-71
2023/12/31 01:10:31;;;;;;;3.55;0.82;;;;;;;6.18;100.00;100466.13;6279947;28;20056;-71
2023/12/31 01:13:32;;;;;;;4.20;1.08;;;;;;;6.18;100.00;100463.53;6279440;28;20048;-71
2023/12/31 01:16:33;;;;;;;2.97;0.75;;;;;;;6.18;100.00;100455.69;6279091;28;20052;-71
2023/12/31 01:19:35;;;;;;;7.97;0.77;;;;;;;6.17;100.00;100455.75;6279288;28;20064;-71
2023/12/31 01:22:36;;;;;;;0.95;0.68;;;;;;;6.20;100.00;100448.66;6279281;28;20048;-71
2023/12/31 01:25:39;;;;;;;1.98;1.10;;;;;;;6.22;100.00;100443.34;6278789;28;20045;-71
2023/12/31 01:28:40;;;;;;;5.40;1.10;;;;;;;6.23;100.00;100442.47;6279367;28;20063;-70
2023/12/31 01:31:42;;;;;;;1.88;0.90;;;;;;;6.25;100.00;100431.03;6279134;28;20048;-71
2023/12/31 01:34:43;;;;;;;3.38;0.90;;;;;;;6.23;100.00;100440.72;6278684;28;20092;-71
2023/12/31 01:37:45;;;;;;;5.25;1.00;;;;;;;6.21;100.00;100437.28;6279026;28;20045;-71
2023/12/31 01:40:53;;;;;;;2.17;0.95;;;;;;;6.25;100.00;100438.03;6279019;28;20045;-71
2023/12/31 01:44:01;;;;;;;1.60;1.10;;;;;;;6.23;100.00;100432.88;6279084;28;20120;-71
2023/12/31 01:47:03;;;;;;;2.03;0.75;;;;;;;6.19;100.00;100428.69;6278243;28;20182;-70
2023/12/31 01:50:06;;;;;;;2.97;0.90;;;;;;;6.13;100.00;100428.91;6279065;28;20052;-71
2023/12/31 01:53:08;;;;;;;1.00;0.70;;;;;;;6.14;100.00;100428.03;6278444;28;20041;-71
2023/12/31 01:56:11;;;;;;;4.03;0.90;;;;;;;6.14;100.00;100417.59;6278512;28;20041;-71
2023/12/31 01:59:12;;;;;;;4.75;0.85;;;;;;;6.14;100.00;100422.81;6278747;28;20040;-71
2023/12/31 02:02:14;;;;;;;1.48;0.82;;;;;;;6.10;100.00;100410.81;6278626;28;20048;-70
2023/12/31 02:05:16;;;;;;;4.00;1.27;;;;;;;6.09;100.00;100409.13;6278054;28;20471;-71
2023/12/31 02:08:17;;;;;;;1.38;0.60;;;;;;;6.15;100.00;100397.56;6278482;28;20048;-71
2023/12/31 02:11:20;;;;;;;6.55;1.30;;;;;;;6.13;100.00;100391.56;6278382;28;20469;-71
2023/12/31 02:14:21;;;;;;;2.17;0.70;;;;;;;6.08;100.00;100383.91;6277669;28;20052;-70
2023/12/31 02:17:23;;;;;;;11.73;1.42;;;;;;;6.13;100.00;100388.94;6278553;28;20143;-72
2023/12/31 02:20:24;;;;;;;6.47;1.00;;;;;;;6.19;100.00;100381.72;6278181;28;20057;-71
2023/12/31 02:23:25;;;;;;;4.15;0.57;;;;;;;6.16;100.00;100381.84;6278288;28;20049;-71
2023/12/31 02:26:29;;;;;;;1.38;1.00;;;;;;;6.05;100.00;100381.44;6277414;28;20048;-71
2023/12/31 02:29:31;;;;;;;2.15;0.82;;;;;;;6.08;100.00;100376.09;6278206;28;20057;-71
2023/12/31 02:32:32;;;;;;;3.13;0.90;;;;;;;6.07;100.00;100375.25;6277747;28;20056;-71
2023/12/31 02:35:33;;;;;;;2.80;0.90;;;;;;;6.08;100.00;100363.03;6277451;28;20052;-71
2023/12/31 02:38:34;;;;;;;1.42;1.00;;;;;;;6.09;100.00;100357.78;6277663;28;20048;-70
2023/12/31 02:41:37;;;;;;;2.65;0.70;;;;;;;6.16;100.00;100352.31;6277544;28;20053;-70
2023/12/31 02:44:41;;;;;;;1.88;0.60;;;;;;;6.18;100.00;100343.50;6277093;28;20446;-68
2023/12/31 02:47:43;;;;;;;4.43;0.95;;;;;;;6.20;100.00;100346.91;6277523;28;20080;-67
2023/12/31 02:50:44;;;;;;;1.45;1.00;;;;;;;6.27;100.00;100331.84;6277580;28;20041;-68
2023/12/31 02:53:45;;;;;;;5.88;1.15;;;;;;;6.28;100.00;100318.72;6276916;28;20041;-67
2023/12/31 02:56:48;;;;;;;1.52;0.90;;;;;;;6.41;100.00;100313.84;6276962;28;20053;-67
2023/12/31 02:59:49;;;;;;;1.48;0.98;;;;;;;6.50;100.00;100321.28;6277211;28;20045;-67
2023/12/31 03:02:51;;;;;;;3.13;1.10;;;;;;;6.58;100.00;100321.75;6277214;28;20048;-67
2023/12/31 03:05:52;;;;;;;2.33;1.02;;;;;;;6.62;100.00;100312.03;6276449;28;20041;-68
2023/12/31 03:08:55;;;;;;;6.15;1.42;;;;;;;6.56;100.00;100304.47;6277331;28;20053;-67
2023/12/31 03:11:57;;;;;;;2.10;0.90;;;;;;;6.58;100.00;100293.03;6276753;28;20560;-67
2023/12/31 03:14:59;;;;;;;0.73;0.70;;;;;;;6.63;100.00;100295.44;6276640;28;20049;-67
2023/12/31 03:18:01;;;;;;;2.83;0.90;;;;;;;6.68;100.00;100295.28;6276807;28;20072;-67
2023/12/31 03:21:02;;;;;;;4.57;1.17;;;;;;;6.72;100.00;100289.84;6276186;28;20041;-67
2023/12/31 03:24:04;;;;;;;1.88;0.98;;;;;;;6.74;100.00;100280.16;6275930;28;20052;-67
2023/12/31 03:27:07;;;;;;;1.40;0.90;;;;;;;6.79;100.00;100279.97;6276117;28;20041;-69
2023/12/31 03:30:09;;;;;;;3.22;1.20;;;;;;;6.80;100.00;100261.59;6276507;28;20346;-67
2023/12/31 03:33:10;;;;;;;1.65;0.55;;;;;;;6.83;100.00;100263.22;6276178;28;20048;-68
2023/12/31 03:36:12;;;;;;;4.53;0.85;;;;;;;6.82;100.00;100254.56;6275765;28;20041;-67
2023/12/31 03:39:13;;;;;;;4.10;0.88;;;;;;;6.78;100.00;100253.00;6272625;28;20052;-67
2023/12/31 03:42:16;;;;;;;2.25;0.70;;;;;;;6.82;100.00;100251.09;6275956;28;20049;-67
2023/12/31 03:45:17;;;;;;;7.35;1.00;;;;;;;6.74;100.00;100235.78;6275448;28;20127;-67
2023/12/31 03:48:18;;;;;;;5.25;0.80;;;;;;;6.79;100.00;100233.78;6276334;28;20064;-67
2023/12/31 03:51:20;;;;;;;3.08;1.00;;;;;;;6.82;100.00;100227.59;6275780;28;20045;-67
2023/12/31 03:54:21;;;;;;;1.90;0.60;;;;;;;6.89;100.00;100228.16;6275543;28;20052;-67
2023/12/31 03:57:24;;;;;;;3.95;1.50;;;;;;;6.96;100.00;100229.56;6276025;28;20049;-67
2023/12/31 04:00:25;;;;;;;9.52;1.00;;;;;;;7.07;100.00;100228.13;6275709;28;20057;-67
2023/12/31 04:03:26;;;;;;;4.65;1.00;;;;;;;7.10;100.00;100224.53;6275317;28;20044;-67
2023/12/31 04:06:28;;;;;;;2.30;0.95;;;;;;;7.12;100.00;100213.06;6274634;28;20056;-67
2023/12/31 04:09:29;;;;;;;3.92;1.50;;;;;;;7.15;100.00;100200.81;6275084;28;20460;-67
2023/12/31 04:12:32;;;;;;;6.18;2.15;;;;;;;7.16;100.00;100199.88;6275338;28;20442;-67
2023/12/31 04:15:33;;;;;;;3.25;1.02;;;;;;;7.14;100.00;100201.72;6275104;28;20045;-67
2023/12/31 04:18:35;;;;;;;4.32;1.20;;;;;;;7.16;100.00;100195.50;6275063;28;20052;-67
2023/12/31 04:21:36;;;;;;;3.22;1.30;;;;;;;7.14;100.00;100181.66;6275630;28;20178;-67
2023/12/31 04:24:39;;;;;;;3.00;0.98;;;;;;;7.18;100.00;100172.75;6274775;28;20052;-67
2023/12/31 04:27:44;;;;;;;3.03;1.30;;;;;;;7.09;100.00;100162.75;6275525;28;20191;-67
2023/12/31 04:30:45;;;;;;;2.13;1.00;;;;;;;7.07;100.00;100156.75;6275359;28;20452;-67
2023/12/31 04:33:47;;;;;;;1.98;1.10;;;;;;;7.11;100.00;100156.53;6274841;28;20049;-67
2023/12/31 04:36:48;;;;;;;4.13;1.20;;;;;;;7.07;100.00;100159.34;6273563;28;20099;-67
2023/12/31 04:39:49;;;;;;;4.15;1.27;;;;;;;7.03;100.00;100153.44;6274990;28;20055;-67
2023/12/31 04:42:52;;;;;;;4.05;1.30;;;;;;;7.03;100.00;100145.59;6275022;28;20127;-67
2023/12/31 04:45:53;;;;;;;2.03;0.90;;;;;;;7.00;100.00;100144.91;6274323;28;20052;-67
2023/12/31 04:48:55;;;;;;;2.80;0.98;;;;;;;7.02;100.00;100130.84;6274885;28;20449;-68
2023/12/31 04:51:56;;;;;;;1.20;0.98;;;;;;;7.05;100.00;100130.69;6274028;28;20128;-67
2023/12/31 04:54:57;;;;;;;4.97;1.10;;;;;;;7.03;100.00;100134.28;6273104;28;20044;-68
2023/12/31 04:58:00;;;;;;;3.78;1.02;;;;;;;7.02;100.00;100128.22;6274728;28;20052;-67
2023/12/31 05:01:01;;;;;;;2.85;0.90;;;;;;;7.06;100.00;100121.09;6274927;28;20049;-67
2023/12/31 05:04:03;;;;;;;3.97;1.13;;;;;;;7.04;100.00;100113.34;6274233;28;20056;-67
2023/12/31 05:07:05;;;;;;;10.43;1.20;;;;;;;7.07;100.00;100110.56;6274056;28;20041;-68
2023/12/31 05:10:07;;;;;;;4.63;1.58;;;;;;;7.06;100.00;100108.88;6274759;28;20045;-67
2023/12/31 05:13:10;;;;;;;1.30;0.98;;;;;;;7.05;100.00;100107.19;6274361;28;20357;-68
2023/12/31 05:16:14;;;;;;;3.00;1.50;;;;;;;6.96;100.00;100094.56;6273986;28;20369;-68
2023/12/31 05:19:16;;;;;;;5.93;1.30;;;;;;;6.93;100.00;100092.09;6274231;28;20048;-67
2023/12/31 05:22:17;;;;;;;1.90;1.27;;;;;;;6.96;100.00;100089.34;6274002;28;20049;-67
2023/12/31 05:25:19;;;;;;;2.35;1.40;;;;;;;6.95;100.00;100084.19;6273627;28;20055;-68
2023/12/31 05:28:21;;;;;;;4.28;1.40;;;;;;;6.94;100.00;100087.72;6274673;28;20056;-67
2023/12/31 05:31:23;;;;;;;2.53;1.20;;;;;;;7.00;100.00;100082.22;6274460;28;20045;-67
2023/12/31 05:34:24;;;;;;;3.95;1.08;;;;;;;6.97;100.00;100077.97;6273509;28;20448;-67
2023/12/31 05:37:26;;;;;;;4.82;1.10;;;;;;;6.94;100.00;100075.50;6266192;28;20045;-67
2023/12/31 05:40:27;;;;;;;3.13;1.25;;;;;;;6.96;100.00;100068.47;6274175;28;20055;-67
2023/12/31 05:43:30;;;;;;;3.15;1.60;;;;;;;6.96;100.00;100060.63;6273936;28;20052;-68
2023/12/31 05:46:31;;;;;;;1.85;1.30;;;;;;;6.99;100.00;100052.59;6274111;28;20333;-68
2023/12/31 05:49:35;;;;;;;2.28;1.40;;;;;;;6.99;100.00;100049.16;6279035;28;20060;-67
2023/12/31 05:52:36;;;;;;;2.58;1.33;;;;;;;6.93;100.00;100039.88;6278648;28;20051;-67
2023/12/31 05:55:38;;;;;;;1.65;1.05;;;;;;;6.92;100.00;100038.19;6278112;28;20056;-68
2023/12/31 05:58:42;;;;;;;2.80;1.48;;;;;;;6.90;100.00;100032.19;6278688;28;20063;-67
2023/12/31 06:01:43;;;;;;;2.53;1.30;;;;;;;6.92;100.00;100029.50;6278324;28;20049;-68
2023/12/31 06:04:44;;;;;;;3.38;1.13;;;;;;;6.88;100.00;100025.34;6278040;28;20045;-68
2023/12/31 06:07:46;;;;;;;2.15;1.27;;;;;;;6.84;100.00;100022.88;6278173;28;20469;-67
2023/12/31 06:10:47;;;;;;;3.20;1.55;;;;;;;6.85;100.00;100010.66;6278489;28;20049;-68
2023/12/31 06:13:50;;;;;;;7.32;1.88;;;;;;;6.78;100.00;100009.31;6278100;28;20052;-67
2023/12/31 06:16:51;;;;;;;2.85;1.02;;;;;;;6.78;100.00;100001.47;6277799;28;20044;-68
2023/12/31 06:19:52;;;;;;;4.40;1.50;;;;;;;6.73;100.00;99998.25;6278155;28;20055;-67
2023/12/31 06:22:54;;;;;;;3.72;1.52;;;;;;;6.70;100.00;99987.94;6277864;28;20052;-67
2023/12/31 06:25:56;;;;;;;3.97;1.50;;;;;;;6.74;100.00;99976.44;6277433;28;20041;-67
2023/12/31 06:28:59;;;;;;;3.08;1.30;;;;;;;6.76;100.00;99972.78;6275745;28;20044;-68
2023/12/31 06:32:01;;;;;;;1.90;1.27;;;;;;;6.86;100.00;99963.59;6277523;28;20131;-67
2023/12/31 06:35:03;;;;;;;2.33;1.23;;;;;;;6.85;100.00;99966.28;6277422;28;20037;-67
2023/12/31 06:38:05;;;;;;;3.38;1.38;;;;;;;6.89;100.00;99966.97;6277554;28;20127;-67
2023/12/31 06:41:08;;;;;;;3.53;1.20;;;;;;;6.92;100.00;99970.28;6277876;28;20041;-67
2023/12/31 06:44:10;;;;;;;7.78;1.30;;;;;;;6.94;100.00;99963.19;6277329;28;20493;-68
2023/12/31 06:47:12;;;;;;;2.10;1.02;;;;;;;6.98;100.00;99972.56;6277148;28;20052;-68
2023/12/31 06:50:13;;;;;;;3.05;1.10;;;;;;;6.94;100.00;99954.50;6277466;28;20045;-68
2023/12/31 06:53:15;;;;;;;2.85;1.30;;;;;;;6.97;100.00;99947.38;6277139;28;20052;-68
2023/12/31 06:56:18;;;;;;;2.38;1.15;;;;;;;7.07;100.00;99952.97;6276828;28;20044;-68
2023/12/31 06:59:21;;;;;;;5.15;1.15;;;;;;;7.09;100.00;99938.06;6276267;28;20053;-67
2023/12/31 07:02:23;;;;;;;1.73;1.23;;;;;;;7.15;100.00;99927.28;6276186;28;20045;-68
2023/12/31 07:05:24;;;;;;;3.42;1.00;;;;;;;7.17;100.00;99932.44;6276478;28;20079;-68
2023/12/31 07:08:25;;;;;;;1.80;0.80;;;;;;;7.21;100.00;99916.50;6276494;28;20076;-68
2023/12/31 07:11:27;;;;;;;5.10;1.10;;;;;;;7.27;100.00;99913.59;6276206;28;20056;-67
2023/12/31 07:14:29;;;;;;;1.75;1.05;;;;;;;7.27;100.00;99907.53;6266454;28;20049;-67
2023/12/31 07:17:31;;;;;;;6.50;1.15;;;;;;;7.30;100.00;99907.34;6272879;28;20045;-67
2023/12/31 07:20:32;;;;;;;5.13;0.90;;;;;;;7.26;100.00;99898.81;6276435;28;20048;-67
2023/12/31 07:23:34;;;;;;;1.25;0.80;;;;;;;7.25;100.00;99889.28;6276506;28;20080;-67
2023/12/31 07:26:35;;;;;;;1.85;0.93;;;;;;;7.26;100.00;99888.34;6275964;28;20175;-66
2023/12/31 07:29:38;;;;;;;3.40;1.00;;;;;;;7.27;100.00;99886.63;6276414;28;20453;-66
2023/12/31 07:32:40;;;;;;;1.08;0.90;;;;;;;7.28;100.00;99889.13;6273476;28;20118;-66
2023/12/31 07:35:42;;;;;;;3.88;1.58;;;;;;;7.31;100.00;99872.44;6269172;28;20053;-66
2023/12/31 07:38:43;;;;;;;1.98;0.90;;;;;;;7.33;100.00;99876.66;6274123;28;20055;-66
2023/12/31 07:41:46;;;;;;;1.58;0.95;;;;;;;7.30;100.00;99862.91;6273896;28;20144;-65
2023/12/31 07:44:49;;;;;;;1.25;1.00;;;;;;;7.33;100.00;99866.22;6274732;28;20053;-66
2023/12/31 07:47:50;;;;;;;2.05;1.15;;;;;;;7.45;100.00;99867.31;6276301;28;20441;-65
2023/12/31 07:50:52;;;;;;;3.30;1.00;;;;;;;7.45;100.00;99863.84;6275911;28;20432;-66
2023/12/31 07:53:53;;;;;;;2.40;0.90;;;;;;;7.46;100.00;99855.94;6276002;28;20501;-65
2023/12/31 07:56:54;;;;;;;1.02;0.68;;;;;;;7.50;100.00;99849.63;6275456;28;20052;-66
2023/12/31 07:59:57;;;;;;;3.38;1.10;;;;;;;7.57;100.00;99847.50;6275848;28;20060;-66
2023/12/31 08:02:58;;;;;;;1.45;0.77;;;;;;;7.68;100.00;99850.38;6274318;28;20063;-67
2023/12/31 08:06:00;;;;;;;1.65;0.70;;;;;;;7.69;100.00;99853.81;6274745;28;20127;-65
2023/12/31 08:09:01;;;;;;;1.23;0.80;;;;;;;7.71;100.00;99855.41;6275277;28;20111;-65
2023/12/31 08:12:02;;;;;;;2.30;0.65;;;;;;;7.74;100.00;99854.41;6275375;28;20128;-66
2023/12/31 08:15:06;;;;;;;1.75;0.70;;;;;;;7.72;100.00;99832.72;6268704;28;20060;-67
2023/12/31 08:18:08;;;;;;;1.38;0.98;;;;;;;7.76;100.00;99840.28;6271574;28;20346;-69
2023/12/31 08:21:11;;;;;;;1.10;0.93;;;;;;;7.82;100.00;99839.13;6273977;28;20044;-67
2023/12/31 08:24:14;;;;;;;2.08;0.88;;;;;;;7.77;100.00;99830.72;6275131;28;20056;-76
2023/12/31 08:27:16;;;;;;;1.05;0.90;;;;;;;7.79;100.00;99831.44;6275127;28;20051;-69
2023/12/31 08:30:18;;;;;;;3.53;1.02;;;;;;;7.81;100.00;99826.97;6275559;28;20045;-66
2023/12/31 08:33:20;;;;;;;2.42;0.88;;;;;;;7.85;100.00;99825.84;6270416;28;20059;-70
2023/12/31 08:36:21;;;;;;;9.77;0.98;;;;;;;7.87;100.00;99826.63;6271802;28;20045;-68
2023/12/31 08:39:23;;;;;;;4.57;1.20;;;;;;;7.82;100.00;99813.81;6274216;28;20049;-68
2023/12/31 08:42:24;;;;;;;1.52;1.08;;;;;;;7.80;100.00;99815.66;6273185;28;20049;-67
2023/12/31 08:45:27;;;;;;;6.93;1.20;;;;;;;7.84;100.00;99806.72;6272850;28;20056;-68
2023/12/31 08:48:28;;;;;;;2.65;0.73;;;;;;;7.86;100.00;99796.19;6274866;28;20051;-68
2023/12/31 08:51:30;;;;;;;3.05;1.02;;;;;;;7.92;100.00;99798.44;6271912;28;20457;-68
2023/12/31 08:54:33;;;;;;;5.68;0.93;;;;;;;7.92;100.00;99787.97;6274233;28;20049;-68
2023/12/31 08:57:34;;;;;;;5.22;1.20;;;;;;;7.97;100.00;99785.09;6273232;28;20538;-70
2023/12/31 09:00:37;;;;;;;1.33;0.98;;;;;;;7.94;100.00;99780.03;6274762;28;20041;-71
2023/12/31 09:03:39;;;;;;;1.55;1.00;;;;;;;7.96;100.00;99778.19;6275496;28;20080;-68
2023/12/31 09:06:40;;;;;;;1.58;0.95;;;;;;;8.07;100.00;99774.00;6274049;28;20462;-69
2023/12/31 09:09:42;;;;;;;1.15;0.70;;;;;;;8.04;100.00;99771.56;6272340;28;20045;-68
2023/12/31 09:12:43;;;;;;;2.75;1.23;;;;;;;8.06;100.00;99771.47;6273088;28;20130;-68
2023/12/31 09:15:46;;;;;;;1.20;0.85;;;;;;;8.06;100.00;99767.06;6274095;28;20060;-68
2023/12/31 09:18:48;;;;;;;1.40;0.95;;;;;;;8.04;100.00;99766.34;6274650;28;20052;-68
2023/12/31 09:21:49;;;;;;;4.43;1.02;;;;;;;8.04;100.00;99763.72;6267316;28;20056;-68
2023/12/31 09:24:51;;;;;;;3.85;1.30;;;;;;;8.01;100.00;99758.66;6278077;28;20048;-67
2023/12/31 09:27:52;;;;;;;3.63;0.90;;;;;;;8.06;100.00;99763.63;6279202;28;20037;-68
2023/12/31 09:30:55;;;;;;;2.95;1.00;;;;;;;8.04;100.00;99761.09;6278896;28;20041;-67
2023/12/31 09:33:56;;;;;;;4.00;1.20;;;;;;;8.01;100.00;99763.88;6278993;28;20041;-67
2023/12/31 09:36:57;;;;;;;1.70;1.05;;;;;;;8.11;100.00;99759.78;6278647;28;20041;-67
2023/12/31 09:39:59;;;;;;;2.20;1.00;;;;;;;8.09;100.00;99761.66;6279191;28;20040;-67
2023/12/31 09:43:02;;;;;;;2.30;1.15;;;;;;;8.12;100.00;99758.84;6279253;28;20045;-68
2023/12/31 09:46:05;;;;;;;2.97;1.48;;;;;;;8.18;100.00;99769.91;6278578;28;20120;-68
2023/12/31 09:49:07;;;;;;;1.83;0.93;;;;;;;8.21;100.00;99756.63;6278822;28;20053;-68
2023/12/31 09:52:09;;;;;;;4.20;0.85;;;;;;;8.21;100.00;99749.63;6278636;28;20059;-68
2023/12/31 09:55:11;;;;;;;1.23;0.63;;;;;;;8.19;100.00;99754.13;6278410;28;20052;-68
2023/12/31 09:58:14;;;;;;;1.58;0.90;;;;;;;8.24;100.00;99741.59;6278244;28;20140;-68
2023/12/31 10:01:17;;;;;;;1.85;0.90;;;;;;;8.31;100.00;99735.06;6278458;28;20044;-68
2023/12/31 10:04:19;;;;;;;2.13;0.98;;;;;;;8.33;100.00;99730.56;6276052;28;20048;-68
2023/12/31 10:07:22;;;;;;;1.67;1.10;;;;;;;8.42;100.00;99726.59;6277363;28;20048;-68
2023/12/31 10:10:27;;;;;;;1.13;0.95;;;;;;;8.47;100.00;99711.44;6278203;28;20127;-68
2023/12/31 10:13:30;;;;;;;0.88;0.85;;;;;;;8.58;100.00;99702.91;6278376;28;20051;-68
2023/12/31 10:16:40;;;;;;;4.43;0.80;;;;;;;8.62;100.00;99720.97;6277246;28;20331;-68
2023/12/31 10:19:42;;;;;;;2.78;1.00;;;;;;;8.77;100.00;99687.75;6268701;28;20330;-67
2023/12/31 10:22:43;;;;;;;2.55;1.17;;;;;;;8.92;100.00;99682.47;6266482;28;20458;-69
2023/12/31 10:25:45;;;;;;;1.42;0.73;;;;;;;8.93;100.00;99676.28;6272003;28;20041;-68
2023/12/31 10:28:46;;;;;;;0.77;0.70;;;;;;;9.05;100.00;99668.50;6268222;28;20056;-68
2023/12/31 10:31:49;;;;;;;1.40;1.00;;;;;;;9.11;100.00;99656.78;6272992;28;20049;-68
2023/12/31 10:35:02;;;;;;;0.82;0.80;;;;;;;9.09;100.00;99641.16;6275903;28;20697;-68
2023/12/31 10:38:05;;;;;;;1.60;0.65;;;;;;;9.15;100.00;99638.13;6277420;28;20037;-68
2023/12/31 10:41:09;;;;;;;4.78;1.27;;;;;;;9.22;100.00;99638.56;6263052;28;20055;-68
2023/12/31 10:44:13;;;;;;;1.25;0.88;;;;;;;9.35;100.00;99642.03;6261215;28;20395;-68
2023/12/31 10:47:19;;;;;;;1.85;0.75;;;;;;;9.31;100.00;99635.34;6264555;28;20083;-68
2023/12/31 10:50:23;;;;;;;0.85;0.70;;;;;;;9.37;100.00;99634.94;6261084;28;20069;-69
2023/12/31 10:53:26;;;;;;;2.10;1.05;;;;;;;9.49;100.00;99635.88;6277333;28;20053;-69
2023/12/31 10:56:27;;;;;;;1.50;1.10;;;;;;;9.46;100.00;99627.41;6276798;28;20041;-69
2023/12/31 10:59:31;;;;;;;3.08;0.93;;;;;;;9.41;100.00;99627.72;6273542;28;20049;-69
2023/12/31 11:02:34;;;;;;;3.13;1.20;;;;;;;9.45;100.00;99608.22;6268594;28;20061;-68
2023/12/31 11:05:38;;;;;;;2.53;1.00;;;;;;;9.53;100.00;99619.00;6260032;28;20057;-67
2023/12/31 11:08:41;;;;;;;1.45;0.73;;;;;;;9.53;100.00;99612.91;6273265;28;20136;-68
2023/12/31 11:11:42;;;;;;;1.42;0.85;;;;;;;9.49;100.00;99608.81;6273631;28;20056;-67
2023/12/31 11:14:48;;;;;;;1.52;0.80;;;;;;;9.44;100.00;99610.91;6272417;28;20135;-68
2023/12/31 11:18:14;;;;;;;7.35;0.80;;;;;;;9.36;100.00;99609.66;6275529;28;20048;-68
2023/12/31 11:21:27;;;;;;;0.98;0.80;;;;;;;9.32;100.00;99602.94;6276975;28;20357;-69
2023/12/31 11:24:29;;;;;;;1.98;1.10;;;;;;;9.30;100.00;99599.56;6276259;28;20049;-68
2023/12/31 11:27:33;;;;;;;1.73;1.05;;;;;;;9.28;100.00;99598.84;6276701;28;20045;-70
2023/12/31 11:30:50;;;;;;;1.85;1.25;;;;;;;9.27;100.00;99596.34;6276975;28;20127;-69
2023/12/31 11:33:52;;;;;;;2.17;1.30;;;;;;;9.30;100.00;99593.47;6276339;28;20044;-69
2023/12/31 11:36:54;;;;;;;1.38;1.05;;;;;;;9.30;100.00;99575.97;6270518;28;20045;-67
2023/12/31 11:39:56;;;;;;;5.22;1.48;;;;;;;9.24;100.00;99576.38;6266112;28;20353;-68
2023/12/31 11:42:57;;;;;;;1.60;1.10;;;;;;;9.23;100.00;99566.84;6264681;28;20040;-67
2023/12/31 11:45:59;;;;;;;1.70;1.30;;;;;;;9.28;100.00;99571.78;6269754;28;20056;-68
2023/12/31 11:49:02;;;;;;;1.85;1.00;;;;;;;9.29;100.00;99560.34;6261431;28;20334;-69
2023/12/31 11:52:04;;;;;;;1.67;1.23;;;;;;;9.29;100.00;99544.63;6266576;28;20052;-69
2023/12/31 11:55:10;;;;;;;1.92;1.00;;;;;;;9.35;100.00;99546.81;6265715;28;20060;-70
2023/12/31 11:58:12;;;;;;;3.67;1.10;;;;;;;9.33;100.00;99535.63;6274288;28;20057;-68
2023/12/31 12:01:13;;;;;;;1.83;1.10;;;;;;;9.29;100.00;99528.91;6263359;28;20468;-70
2023/12/31 12:04:16;;;;;;;3.30;1.38;;;;;;;9.29;100.00;99518.41;6258939;28;20044;-67
2023/12/31 12:07:17;;;;;;;3.35;0.95;;;;;;;9.29;100.00;99518.41;6268083;28;20048;-69
2023/12/31 12:10:19;;;;;;;2.28;1.20;;;;;;;9.29;100.00;99513.16;6266509;28;20062;-68
2023/12/31 12:13:21;;;;;;;1.92;1.15;;;;;;;9.34;100.00;99503.19;6258974;28;20187;-69
2023/12/31 12:16:22;;;;;;;2.20;1.33;;;;;;;9.27;100.00;99500.16;6273538;28;20454;-69
2023/12/31 12:19:25;;;;;;;1.33;1.23;;;;;;;9.27;100.00;99504.59;6274369;28;20053;-68
2023/12/31 12:22:27;;;;;;;1.70;1.10;;;;;;;9.27;100.00;99496.72;6260949;28;20105;-68
2023/12/31 12:25:29;;;;;;;6.38;1.30;;;;;;;9.29;100.00;99505.31;6269407;28;20330;-68
2023/12/31 12:28:31;;;;;;;2.50;1.10;;;;;;;9.34;100.00;99498.78;6272788;28;20049;-69
2023/12/31 12:31:36;;;;;;;3.40;1.30;;;;;;;9.35;100.00;99502.25;6274138;28;20045;-68
2023/12/31 12:34:39;;;;;;;3.38;1.20;;;;;;;9.41;100.00;99499.22;6266723;28;20132;-68
2023/12/31 12:37:41;;;;;;;5.30;1.40;;;;;;;9.48;100.00;99503.09;6270518;28;20052;-68
2023/12/31 12:40:43;;;;;;;2.03;1.33;;;;;;;9.53;100.00;99500.16;6274765;28;20060;-68
2023/12/31 12:43:44;;;;;;;2.53;1.33;;;;;;;9.53;100.00;99482.63;6274399;28;20059;-68
2023/12/31 12:46:47;;;;;;;3.30;1.40;;;;;;;9.55;100.00;99480.75;6266245;28;20045;-68
2023/12/31 12:49:49;;;;;;;3.85;1.38;;;;;;;9.61;100.00;99484.72;6270172;28;20155;-71
2023/12/31 12:52:51;;;;;;;1.30;1.20;;;;;;;9.69;100.00;99481.59;6272125;28;20045;-69
2023/12/31 12:55:52;;;;;;;2.63;1.17;;;;;;;9.81;100.00;99470.19;6262064;28;20045;-71
2023/12/31 12:58:53;;;;;;;3.22;1.20;;;;;;;9.94;100.00;99472.81;6265815;28;20048;-68
2023/12/31 13:01:55;;;;;;;2.13;1.10;;;;;;;10.04;100.00;99474.69;6268164;28;20202;-69
2023/12/31 13:04:59;;;;;;;2.17;1.42;;;;;;;10.16;100.00;99479.03;6265238;28;20053;-72
2023/12/31 13:08:00;;;;;;;2.38;1.33;;;;;;;10.20;100.00;99469.16;6264462;28;20040;-73
2023/12/31 13:11:02;;;;;;;3.15;1.65;;;;;;;10.18;100.00;99467.59;6269794;28;20064;-68
2023/12/31 13:14:03;;;;;;;2.00;1.10;;;;;;;10.05;100.00;99460.59;6274476;28;20422;-69
2023/12/31 13:17:05;;;;;;;4.30;1.20;;;;;;;9.95;100.00;99472.72;6274195;28;20037;-70
2023/12/31 13:20:10;;;;;;;5.57;1.60;;;;;;;9.84;100.00;99457.72;6274287;28;20045;-70
2023/12/31 13:23:13;;;;;;;2.65;1.45;;;;;;;9.77;100.00;99453.88;6274188;28;20508;-70
2023/12/31 13:26:14;;;;;;;2.22;1.38;;;;;;;9.71;100.00;99456.91;6274190;28;20138;-69
2023/12/31 13:29:15;;;;;;;2.05;1.20;;;;;;;9.65;100.00;99452.09;6274584;28;20353;-68
2023/12/31 13:32:17;;;;;;;2.70;1.40;;;;;;;9.69;100.00;99457.97;6274492;28;20345;-69
2023/12/31 13:35:19;;;;;;;4.07;1.67;;;;;;;9.69;100.00;99445.69;6273933;28;20049;-70
2023/12/31 13:38:23;;;;;;;4.47;1.73;;;;;;;9.68;100.00;99456.31;6274350;28;20052;-70
2023/12/31 13:41:25;;;;;;;2.72;1.45;;;;;;;9.69;100.00;99453.56;6274503;28;20045;-70
2023/12/31 13:44:27;;;;;;;4.93;1.05;;;;;;;9.68;100.00;99454.50;6273893;28;20480;-69
2023/12/31 13:47:29;;;;;;;5.70;1.73;;;;;;;9.72;100.00;99445.50;6274570;28;20164;-70
2023/12/31 13:50:31;;;;;;;1.88;1.20;;;;;;;9.78;100.00;99441.59;6274537;28;20136;-70
2023/12/31 13:53:33;;;;;;;5.60;1.63;;;;;;;9.83;100.00;99431.59;6274137;28;20049;-68
2023/12/31 13:56:34;;;;;;;2.63;1.48;;;;;;;9.83;100.00;99439.47;6290476;28;20075;-68
2023/12/31 13:59:35;;;;;;;3.15;1.30;;;;;;;9.85;100.00;99434.94;6266250;28;20437;-68
2023/12/31 14:02:37;;;;;;;2.53;1.35;;;;;;;9.87;100.00;99439.13;6274213;28;20049;-68
2023/12/31 14:05:39;;;;;;;6.70;1.88;;;;;;;9.91;100.00;99437.13;6273617;28;20053;-68
2023/12/31 14:08:42;;;;;;;2.58;1.33;;;;;;;9.99;100.00;99442.69;6276548;28;20056;-68
2023/12/31 14:11:43;;;;;;;3.80;1.65;;;;;;;10.00;100.00;99418.09;6278548;28;20441;-68